createdAt,value
2022-11-23T00:01:30.086Z,7.52
2022-11-23T00:03:58.770Z,7.52
2022-11-23T00:06:26.026Z,7.54
2022-11-23T00:08:53.252Z,7.56
2022-11-23T00:11:21.255Z,7.57
2022-11-23T00:13:47.714Z,7.60
2022-11-23T00:16:16.508Z,7.59
2022-11-23T00:18:43.105Z,7.57
2022-11-23T00:21:12.262Z,7.58
2022-11-23T00:23:38.887Z,7.57
2022-11-23T00:26:06.234Z,7.64
2022-11-23T00:28:33.370Z,7.62
2022-11-23T00:30:59.788Z,7.63
2022-11-23T00:33:26.243Z,7.68
2022-11-23T00:36:03.429Z,7.67
2022-11-23T00:38:30.351Z,7.68
2022-11-23T00:41:06.230Z,7.68
2022-11-23T00:43:33.047Z,7.69
2022-11-23T00:46:19.452Z,7.67
2022-11-23T00:48:47.972Z,7.65
2022-11-23T00:51:16.947Z,7.67
2022-11-23T00:53:44.201Z,7.68
2022-11-23T00:56:11.192Z,7.70
2022-11-23T00:58:41.001Z,7.71
2022-11-23T01:01:13.097Z,7.70
2022-11-23T01:03:42.573Z,7.70
2022-11-23T01:06:11.847Z,7.73
2022-11-23T01:08:39.215Z,7.72
2022-11-23T01:11:08.598Z,7.70
2022-11-23T01:13:36.042Z,7.74
2022-11-23T01:16:02.498Z,7.76
2022-11-23T01:18:28.989Z,7.76
2022-11-23T01:20:55.442Z,7.75
2022-11-23T01:23:21.923Z,7.77
2022-11-23T01:25:51.918Z,7.78
2022-11-23T01:28:20.732Z,7.77
2022-11-23T01:30:47.150Z,7.79
2022-11-23T01:33:13.627Z,7.80
2022-11-23T01:35:40.074Z,7.82
2022-11-23T01:38:06.551Z,7.84
2022-11-23T01:40:41.042Z,7.85
2022-11-23T01:43:15.330Z,7.85
2022-11-23T01:46:01.517Z,7.84
2022-11-23T01:48:38.024Z,7.83
2022-11-23T01:51:09.501Z,7.81
2022-11-23T01:53:37.353Z,7.81
2022-11-23T01:56:06.954Z,7.86
2022-11-23T01:58:37.765Z,7.88
2022-11-23T02:01:07.223Z,7.88
2022-11-23T02:03:36.598Z,7.88
2022-11-23T02:06:07.698Z,7.91
2022-11-23T02:08:34.947Z,7.92
2022-11-23T02:11:02.001Z,7.92
2022-11-23T02:13:28.953Z,7.89
2022-11-23T02:15:57.619Z,7.91
2022-11-23T02:18:27.191Z,7.88
2022-11-23T02:20:54.067Z,7.86
2022-11-23T02:23:32.351Z,7.90
2022-11-23T02:26:31.409Z,7.94
2022-11-23T02:29:03.958Z,7.94
2022-11-23T02:31:30.489Z,7.92
2022-11-23T02:33:56.949Z,7.95
2022-11-23T02:36:32.496Z,7.96
2022-11-23T02:39:01.563Z,7.96
2022-11-23T02:41:28.013Z,7.96
2022-11-23T02:43:57.312Z,7.94
2022-11-23T02:46:23.794Z,7.97
2022-11-23T02:48:50.194Z,7.98
2022-11-23T02:51:16.637Z,8.02
2022-11-23T02:53:43.013Z,8.03
2022-11-23T02:56:09.455Z,8.02
2022-11-23T02:58:35.889Z,8.01
2022-11-23T03:01:02.345Z,7.98
2022-11-23T03:03:28.799Z,7.97
2022-11-23T03:05:55.309Z,7.94
2022-11-23T03:08:21.718Z,7.93
2022-11-23T03:10:48.173Z,7.92
2022-11-23T03:13:14.618Z,7.89
2022-11-23T03:15:41.040Z,7.87
2022-11-23T03:18:07.572Z,7.83
2022-11-23T03:20:34.037Z,7.83
2022-11-23T03:23:00.450Z,7.82
2022-11-23T03:25:26.905Z,7.82
2022-11-23T03:27:53.432Z,7.83
2022-11-23T03:30:19.963Z,7.81
2022-11-23T03:32:46.375Z,7.81
2022-11-23T03:35:12.850Z,7.83
2022-11-23T03:37:39.285Z,7.81
2022-11-23T03:40:06.493Z,7.81
2022-11-23T03:42:32.882Z,7.80
2022-11-23T03:44:59.302Z,7.80
2022-11-23T03:47:25.721Z,7.78
2022-11-23T03:49:52.145Z,7.78
2022-11-23T03:52:18.643Z,7.78
2022-11-23T03:54:45.158Z,7.76
2022-11-23T03:57:11.541Z,7.75
2022-11-23T03:59:37.946Z,7.76
2022-11-23T04:02:04.433Z,7.75
2022-11-23T04:04:30.829Z,7.73
2022-11-23T04:06:57.275Z,7.74
2022-11-23T04:09:23.905Z,7.72
2022-11-23T04:11:50.515Z,7.73
2022-11-23T04:14:16.977Z,7.73
2022-11-23T04:16:43.495Z,7.73
2022-11-23T04:19:09.921Z,7.71
2022-11-23T04:21:37.366Z,7.70
2022-11-23T04:24:04.015Z,7.67
2022-11-23T04:26:30.459Z,7.68
2022-11-23T04:28:56.914Z,7.67
2022-11-23T04:31:23.347Z,7.65
2022-11-23T04:33:49.963Z,7.64
2022-11-23T04:36:16.397Z,7.63
2022-11-23T04:38:43.205Z,7.63
2022-11-23T04:41:10.401Z,7.61
2022-11-23T04:43:36.842Z,7.62
2022-11-23T04:46:03.588Z,7.61
2022-11-23T04:48:30.064Z,7.60
2022-11-23T04:50:56.540Z,7.61
2022-11-23T04:53:23.007Z,7.63
2022-11-23T04:55:49.469Z,7.63
2022-11-23T04:58:15.974Z,7.60
2022-11-23T05:00:42.460Z,7.62
2022-11-23T05:03:08.924Z,7.64
2022-11-23T05:05:37.999Z,7.64
2022-11-23T05:08:04.838Z,7.64
2022-11-23T05:10:31.289Z,7.65
2022-11-23T05:12:57.725Z,7.67
2022-11-23T05:15:24.200Z,7.65
2022-11-23T05:17:54.044Z,7.67
2022-11-23T05:20:23.229Z,7.66
2022-11-23T05:22:49.676Z,7.67
2022-11-23T05:25:16.073Z,7.66
2022-11-23T05:27:42.812Z,7.68
2022-11-23T05:30:09.691Z,7.65
2022-11-23T05:32:36.156Z,7.66
2022-11-23T05:35:02.622Z,7.67
2022-11-23T05:37:29.038Z,7.65
2022-11-23T05:39:55.458Z,7.64
2022-11-23T05:42:21.967Z,7.62
2022-11-23T05:44:48.374Z,7.64
2022-11-23T05:47:14.789Z,7.64
2022-11-23T05:49:41.233Z,7.64
2022-11-23T05:52:07.706Z,7.64
2022-11-23T05:54:34.226Z,7.65
2022-11-23T05:57:00.883Z,7.63
2022-11-23T05:59:27.384Z,7.62
2022-11-23T06:01:53.808Z,7.61
2022-11-23T06:04:20.349Z,7.61
2022-11-23T06:06:46.945Z,7.60
2022-11-23T06:09:13.390Z,7.60
2022-11-23T06:11:39.876Z,7.59
2022-11-23T06:14:08.809Z,7.59
2022-11-23T06:16:39.243Z,7.61
2022-11-23T06:19:05.957Z,7.60
2022-11-23T06:21:32.354Z,7.60
2022-11-23T06:23:58.826Z,7.60
2022-11-23T06:26:25.807Z,7.60
2022-11-23T06:28:52.234Z,7.59
2022-11-23T06:31:18.712Z,7.59
2022-11-23T06:33:45.182Z,7.60
2022-11-23T06:36:12.423Z,7.59
2022-11-23T06:38:38.906Z,7.59
2022-11-23T06:41:05.589Z,7.59
2022-11-23T06:43:32.301Z,7.59
2022-11-23T06:45:58.852Z,7.59
2022-11-23T06:48:25.301Z,7.59
2022-11-23T06:50:51.843Z,7.58
2022-11-23T06:53:18.285Z,7.59
2022-11-23T06:55:44.720Z,7.59
2022-11-23T06:58:11.246Z,7.58
2022-11-23T07:00:37.629Z,7.58
2022-11-23T07:03:04.078Z,7.57
2022-11-23T07:05:30.532Z,7.59
2022-11-23T07:07:57.267Z,7.57
2022-11-23T07:10:23.772Z,7.58
2022-11-23T07:12:50.226Z,7.57
2022-11-23T07:15:16.713Z,7.58
2022-11-23T07:17:44.444Z,7.59
2022-11-23T07:20:12.469Z,7.58
2022-11-23T07:22:39.429Z,7.59
2022-11-23T07:25:06.206Z,7.60
2022-11-23T07:27:32.653Z,7.61
2022-11-23T07:29:59.153Z,7.59
2022-11-23T07:32:25.693Z,7.62
2022-11-23T07:34:52.119Z,7.61
2022-11-23T07:37:18.574Z,7.63
2022-11-23T07:40:01.043Z,7.63
2022-11-23T07:42:34.501Z,7.65
2022-11-23T07:45:05.191Z,7.65
2022-11-23T07:47:31.863Z,7.65
2022-11-23T07:49:58.343Z,7.68
2022-11-23T07:52:25.557Z,7.75
2022-11-23T07:54:52.025Z,7.77
2022-11-23T07:57:18.501Z,7.80
2022-11-23T07:59:44.998Z,7.80
2022-11-23T08:02:15.093Z,7.82
2022-11-23T08:04:41.674Z,7.84
2022-11-23T08:07:08.189Z,7.87
2022-11-23T08:09:34.861Z,7.89
2022-11-23T08:12:01.372Z,7.93
2022-11-23T08:14:27.786Z,7.91
2022-11-23T08:16:54.288Z,7.96
2022-11-23T08:19:20.753Z,7.98
2022-11-23T08:21:47.168Z,8.03
2022-11-23T08:24:13.642Z,8.05
2022-11-23T08:26:40.085Z,8.06
2022-11-23T08:29:06.677Z,8.07
2022-11-23T08:31:33.140Z,8.05
2022-11-23T08:34:03.225Z,8.03
2022-11-23T08:36:30.277Z,8.06
2022-11-23T08:38:56.749Z,8.07
2022-11-23T08:41:23.267Z,8.01
2022-11-23T08:43:51.284Z,8.03
2022-11-23T08:46:17.887Z,8.02
2022-11-23T08:48:44.402Z,7.98
2022-11-23T08:51:11.533Z,8.00
2022-11-23T08:53:38.400Z,8.03
2022-11-23T08:56:06.643Z,8.04
2022-11-23T08:58:33.195Z,8.07
2022-11-23T09:00:59.600Z,8.12
2022-11-23T09:03:26.145Z,8.15
2022-11-23T09:05:54.293Z,8.13
2022-11-23T09:08:20.711Z,8.15
2022-11-23T09:10:47.100Z,8.17
2022-11-23T09:13:13.660Z,8.18
2022-11-23T09:15:40.199Z,8.20
2022-11-23T09:18:06.668Z,8.25
2022-11-23T09:20:33.246Z,8.28
2022-11-23T09:22:59.695Z,8.28
2022-11-23T09:25:26.221Z,8.25
2022-11-23T09:28:00.170Z,8.30
2022-11-23T09:30:27.796Z,8.29
2022-11-23T09:32:58.248Z,8.30
2022-11-23T09:35:25.326Z,8.29
2022-11-23T09:37:56.902Z,8.32
2022-11-23T09:40:25.369Z,8.35
2022-11-23T09:43:07.146Z,8.35
2022-11-23T09:46:05.847Z,8.43
2022-11-23T09:48:45.800Z,8.46
2022-11-23T09:51:21.181Z,8.46
2022-11-23T09:54:04.127Z,8.49
2022-11-23T09:56:35.101Z,8.54
2022-11-23T09:59:30.969Z,8.56
2022-11-23T10:01:58.775Z,8.50
2022-11-23T10:04:25.537Z,8.45
2022-11-23T10:07:03.286Z,8.40
2022-11-23T10:09:53.928Z,8.34
2022-11-23T10:12:40.129Z,8.32
2022-11-23T10:15:20.739Z,8.37
2022-11-23T10:18:20.903Z,8.37
2022-11-23T10:21:09.263Z,8.35
2022-11-23T10:23:48.260Z,8.42
2022-11-23T10:26:17.837Z,8.39
2022-11-23T10:28:45.910Z,8.37
2022-11-23T10:31:21.028Z,8.36
2022-11-23T10:34:12.923Z,8.38
2022-11-23T10:36:41.065Z,8.39
2022-11-23T10:39:22.898Z,8.48
2022-11-23T10:41:53.548Z,8.48
2022-11-23T10:44:31.305Z,8.48
2022-11-23T10:46:59.268Z,8.59
2022-11-23T10:49:34.079Z,8.62
2022-11-23T10:52:06.899Z,8.63
2022-11-23T10:54:38.688Z,8.64
2022-11-23T10:57:44.256Z,8.67
2022-11-23T11:00:10.988Z,8.74
2022-11-23T11:02:41.249Z,8.71
2022-11-23T11:05:46.293Z,8.69
2022-11-23T11:08:21.516Z,8.71
2022-11-23T11:10:52.571Z,8.70
2022-11-23T11:13:26.846Z,8.74
2022-11-23T11:16:02.695Z,8.76
2022-11-23T11:18:34.951Z,8.76
2022-11-23T11:21:21.678Z,8.80
2022-11-23T11:23:54.279Z,8.85
2022-11-23T11:26:23.469Z,8.80
2022-11-23T11:28:53.266Z,8.82
2022-11-23T11:31:30.763Z,8.82
2022-11-23T11:34:16.627Z,8.81
2022-11-23T11:36:48.961Z,8.80
2022-11-23T11:39:25.961Z,8.90
2022-11-23T11:41:54.520Z,8.97
2022-11-23T11:44:26.890Z,9.01
2022-11-23T11:47:04.437Z,8.95
2022-11-23T11:49:37.607Z,8.96
2022-11-23T11:52:11.609Z,8.97
2022-11-23T11:54:49.970Z,8.94
2022-11-23T11:57:30.077Z,8.91
2022-11-23T11:59:58.302Z,8.97
2022-11-23T12:02:27.851Z,8.98
2022-11-23T12:05:14.089Z,9.02
2022-11-23T12:07:52.771Z,9.01
2022-11-23T12:10:27.951Z,9.04
2022-11-23T12:12:56.476Z,9.02
2022-11-23T12:15:50.212Z,9.09
2022-11-23T12:18:23.071Z,9.06
2022-11-23T12:21:06.800Z,9.09
2022-11-23T12:23:36.423Z,9.06
2022-11-23T12:26:21.560Z,9.24
2022-11-23T12:29:13.697Z,9.23
2022-11-23T12:31:49.490Z,9.26
2022-11-23T12:34:34.673Z,9.31
2022-11-23T12:37:21.280Z,9.34
2022-11-23T12:39:59.850Z,9.51
2022-11-23T12:42:44.458Z,9.53
2022-11-23T12:45:23.218Z,9.55
2022-11-23T12:48:07.467Z,9.46
2022-11-23T12:51:00.147Z,9.40
2022-11-23T12:53:45.500Z,9.45
2022-11-23T12:56:20.999Z,9.45
2022-11-23T12:58:49.037Z,9.44
2022-11-23T13:01:31.639Z,9.41
2022-11-23T13:04:33.535Z,9.58
2022-11-23T13:07:40.941Z,9.75
2022-11-23T13:10:20.352Z,10.04
2022-11-23T13:13:12.509Z,10.14
2022-11-23T13:16:17.784Z,9.99
2022-11-23T13:19:23.020Z,9.83
2022-11-23T13:21:50.092Z,9.69
2022-11-23T13:24:27.800Z,9.75
2022-11-23T13:27:12.779Z,10.11
2022-11-23T13:29:47.330Z,10.37
2022-11-23T13:32:38.748Z,10.75
2022-11-23T13:35:17.522Z,10.52
2022-11-23T13:37:56.220Z,10.08
2022-11-23T13:40:25.740Z,9.91
2022-11-23T13:42:54.109Z,9.88
2022-11-23T13:45:20.501Z,9.84
2022-11-23T13:48:08.754Z,9.78
2022-11-23T13:50:37.693Z,9.60
2022-11-23T13:53:22.669Z,9.45
2022-11-23T13:55:52.492Z,9.32
2022-11-23T13:58:25.152Z,9.28
2022-11-23T14:00:59.453Z,9.21
2022-11-23T14:03:52.266Z,9.11
2022-11-23T14:06:36.995Z,9.12
2022-11-23T14:09:12.744Z,9.12
2022-11-23T14:12:09.391Z,9.04
2022-11-23T14:14:43.997Z,9.02
2022-11-23T14:17:13.465Z,9.00
2022-11-23T14:19:46.129Z,8.95
2022-11-23T14:22:38.920Z,8.92
2022-11-23T14:25:34.484Z,8.87
2022-11-23T14:28:29.124Z,8.85
2022-11-23T14:31:12.422Z,8.83
2022-11-23T14:34:00.505Z,8.83
2022-11-23T14:36:46.002Z,8.84
2022-11-23T14:39:30.738Z,8.82
2022-11-23T14:42:05.358Z,8.85
2022-11-23T14:44:38.439Z,8.84
2022-11-23T14:47:10.793Z,8.81
2022-11-23T14:49:48.101Z,8.77
2022-11-23T14:52:19.596Z,8.80
2022-11-23T14:54:49.843Z,8.80
2022-11-23T14:57:18.184Z,8.82
2022-11-23T14:59:48.888Z,8.84
2022-11-23T15:02:23.322Z,8.83
2022-11-23T15:05:12.616Z,8.82
2022-11-23T15:07:43.791Z,8.80
2022-11-23T15:10:25.480Z,8.76
2022-11-23T15:12:51.967Z,8.74
2022-11-23T15:15:20.304Z,8.72
2022-11-23T15:17:56.100Z,8.67
2022-11-23T15:20:26.818Z,8.64
2022-11-23T15:22:53.418Z,8.62
2022-11-23T15:25:20.141Z,8.58
2022-11-23T15:27:50.838Z,8.52
2022-11-23T15:30:37.306Z,8.42
2022-11-23T15:33:11.522Z,8.40
2022-11-23T15:35:39.725Z,8.36
2022-11-23T15:38:17.755Z,8.33
2022-11-23T15:40:49.424Z,8.31
2022-11-23T15:43:19.009Z,8.24
2022-11-23T15:45:45.431Z,8.18
2022-11-23T15:48:18.485Z,8.14
2022-11-23T15:50:53.800Z,8.10
2022-11-23T15:53:25.087Z,8.05
2022-11-23T15:55:54.284Z,8.01
2022-11-23T15:58:21.838Z,7.98
2022-11-23T16:00:51.642Z,7.94
2022-11-23T16:03:29.302Z,7.92
2022-11-23T16:06:11.181Z,7.88
2022-11-23T16:08:40.639Z,7.86
2022-11-23T16:11:31.116Z,7.85
2022-11-23T16:14:19.602Z,7.82
2022-11-23T16:16:58.268Z,7.80
2022-11-23T16:19:30.487Z,7.79
2022-11-23T16:22:02.858Z,7.79
2022-11-23T16:24:32.271Z,7.77
2022-11-23T16:26:59.447Z,7.76
2022-11-23T16:29:36.205Z,7.77
2022-11-23T16:32:06.848Z,7.77
2022-11-23T16:34:33.669Z,7.78
2022-11-23T16:37:03.852Z,7.77
2022-11-23T16:39:30.391Z,7.77
2022-11-23T16:41:56.866Z,7.76
2022-11-23T16:44:23.290Z,7.75
2022-11-23T16:46:49.841Z,7.75
2022-11-23T16:49:23.272Z,7.75
2022-11-23T16:51:57.236Z,7.72
2022-11-23T16:54:25.337Z,7.71
2022-11-23T16:56:52.770Z,7.72
2022-11-23T16:59:19.662Z,7.69
2022-11-23T17:01:51.434Z,7.70
2022-11-23T17:04:22.162Z,7.65
2022-11-23T17:06:49.007Z,7.64
2022-11-23T17:09:15.389Z,7.66
2022-11-23T17:11:45.104Z,7.64
2022-11-23T17:14:18.923Z,7.63
2022-11-23T17:16:46.949Z,7.65
2022-11-23T17:19:18.974Z,7.64
2022-11-23T17:21:45.452Z,7.63
2022-11-23T17:24:13.774Z,7.63
2022-11-23T17:26:46.487Z,7.61
2022-11-23T17:29:19.557Z,7.61
2022-11-23T17:31:47.227Z,7.62
2022-11-23T17:34:14.970Z,7.62
2022-11-23T17:36:43.112Z,7.59
2022-11-23T17:39:30.010Z,7.58
2022-11-23T17:42:03.095Z,7.57
2022-11-23T17:44:31.235Z,7.57
2022-11-23T17:47:00.097Z,7.57
2022-11-23T17:49:28.323Z,7.55
2022-11-23T17:51:55.758Z,7.52
2022-11-23T17:54:25.309Z,7.52
2022-11-23T17:56:52.127Z,7.46
2022-11-23T17:59:19.074Z,7.47
2022-11-23T18:01:45.697Z,7.47
2022-11-23T18:04:12.259Z,7.48
2022-11-23T18:06:38.882Z,7.48
2022-11-23T18:09:06.538Z,7.45
2022-11-23T18:11:33.016Z,7.43
2022-11-23T18:13:59.501Z,7.41
2022-11-23T18:16:26.081Z,7.39
2022-11-23T18:18:52.619Z,7.42
2022-11-23T18:21:19.176Z,7.43
2022-11-23T18:23:45.723Z,7.42
2022-11-23T18:26:21.236Z,7.42
2022-11-23T18:28:48.852Z,7.41
2022-11-23T18:31:16.548Z,7.42
2022-11-23T18:33:43.298Z,7.42
2022-11-23T18:36:10.595Z,7.42
2022-11-23T18:38:38.097Z,7.44
2022-11-23T18:41:05.332Z,7.46
2022-11-23T18:43:31.989Z,7.45
2022-11-23T18:45:59.185Z,7.45
2022-11-23T18:48:25.778Z,7.47
2022-11-23T18:50:54.151Z,7.47
2022-11-23T18:53:20.641Z,7.46
2022-11-23T18:55:47.135Z,7.48
2022-11-23T18:58:13.584Z,7.48
2022-11-23T19:00:40.178Z,7.48
2022-11-23T19:03:06.747Z,7.49
2022-11-23T19:05:34.862Z,7.49
2022-11-23T19:08:13.670Z,7.47
2022-11-23T19:10:40.123Z,7.47
2022-11-23T19:13:06.587Z,7.48
2022-11-23T19:15:33.762Z,7.48
2022-11-23T19:18:00.808Z,7.49
2022-11-23T19:20:29.140Z,7.49
2022-11-23T19:22:55.981Z,7.49
2022-11-23T19:25:22.418Z,7.49
2022-11-23T19:27:51.155Z,7.49
2022-11-23T19:30:17.649Z,7.49
2022-11-23T19:32:44.330Z,7.50
2022-11-23T19:35:10.822Z,7.52
2022-11-23T19:37:37.319Z,7.52
2022-11-23T19:40:04.230Z,7.54
2022-11-23T19:42:30.712Z,7.52
2022-11-23T19:44:57.173Z,7.52
2022-11-23T19:47:23.602Z,7.52
2022-11-23T19:49:50.130Z,7.49
2022-11-23T19:52:16.603Z,7.47
2022-11-23T19:54:43.045Z,7.47
2022-11-23T19:57:09.468Z,7.47
2022-11-23T19:59:36.179Z,7.47
2022-11-23T20:02:02.913Z,7.45
2022-11-23T20:04:29.728Z,7.44
2022-11-23T20:06:56.515Z,7.41
2022-11-23T20:09:23.918Z,7.38
2022-11-23T20:11:51.408Z,7.30
2022-11-23T20:14:18.375Z,7.32
2022-11-23T20:16:44.966Z,7.24
2022-11-23T20:19:11.690Z,7.24
2022-11-23T20:21:38.382Z,7.23
2022-11-23T20:24:07.686Z,7.21
2022-11-23T20:26:38.742Z,7.18
2022-11-23T20:29:06.311Z,7.12
2022-11-23T20:31:33.823Z,7.11
2022-11-23T20:34:01.036Z,7.07
2022-11-23T20:36:32.422Z,7.06
2022-11-23T20:39:01.882Z,7.06
2022-11-23T20:41:30.680Z,7.05
2022-11-23T20:44:10.969Z,7.02
2022-11-23T20:47:00.460Z,7.01
2022-11-23T20:49:23.994Z,7.02
2022-11-23T20:51:50.520Z,6.99
2022-11-23T20:54:17.016Z,6.99
2022-11-23T20:56:43.481Z,6.95
2022-11-23T20:59:12.040Z,6.90
2022-11-23T21:01:40.662Z,6.88
2022-11-23T21:04:08.814Z,6.87
2022-11-23T21:06:38.976Z,6.86
2022-11-23T21:09:07.680Z,6.82
2022-11-23T21:11:52.632Z,6.77
2022-11-23T21:14:24.617Z,6.76
2022-11-23T21:16:54.969Z,6.70
2022-11-23T21:19:35.937Z,6.72
2022-11-23T21:22:05.260Z,6.72
2022-11-23T21:24:32.270Z,6.71
2022-11-23T21:26:59.019Z,6.64
2022-11-23T21:29:26.176Z,6.64
2022-11-23T21:31:52.780Z,6.68
2022-11-23T21:34:22.085Z,6.65
2022-11-23T21:36:49.814Z,6.70
2022-11-23T21:39:17.384Z,6.71
2022-11-23T21:41:44.027Z,6.72
2022-11-23T21:44:11.170Z,6.70
2022-11-23T21:46:39.652Z,6.70
2022-11-23T21:49:06.772Z,6.72
2022-11-23T21:51:33.769Z,6.71
2022-11-23T21:54:03.116Z,6.73
2022-11-23T21:56:30.227Z,6.69
2022-11-23T21:58:57.290Z,6.69
2022-11-23T22:01:32.462Z,6.69
2022-11-23T22:04:02.005Z,6.72
2022-11-23T22:06:28.854Z,6.71
2022-11-23T22:08:59.766Z,6.72
2022-11-23T22:11:33.165Z,6.72
2022-11-23T22:14:02.169Z,6.71
2022-11-23T22:16:31.343Z,6.66
2022-11-23T22:18:59.107Z,6.64
2022-11-23T22:21:33.647Z,6.66
2022-11-23T22:24:00.178Z,6.64
2022-11-23T22:26:27.779Z,6.67
2022-11-23T22:28:55.427Z,6.70
2022-11-23T22:31:24.767Z,6.74
2022-11-23T22:33:53.282Z,6.78
2022-11-23T22:36:22.615Z,6.80
2022-11-23T22:39:01.934Z,6.82
2022-11-23T22:41:29.869Z,6.78
2022-11-23T22:43:57.044Z,6.78
2022-11-23T22:46:24.611Z,6.75
2022-11-23T22:48:52.326Z,6.69
2022-11-23T22:51:22.891Z,6.69
2022-11-23T22:53:57.193Z,6.69
2022-11-23T22:56:24.605Z,6.69
2022-11-23T22:58:51.114Z,6.70
2022-11-23T23:01:20.547Z,6.73
2022-11-23T23:03:47.791Z,6.74
2022-11-23T23:06:19.462Z,6.77
2022-11-23T23:08:47.200Z,6.78
2022-11-23T23:11:14.907Z,6.80
2022-11-23T23:13:42.083Z,6.80
2022-11-23T23:16:11.904Z,6.81
2022-11-23T23:18:39.027Z,6.80
2022-11-23T23:21:10.829Z,6.82
2022-11-23T23:23:38.707Z,6.83
2022-11-23T23:26:05.991Z,6.82
2022-11-23T23:28:32.526Z,6.79
2022-11-23T23:31:03.490Z,6.75
2022-11-23T23:33:32.264Z,6.74
2022-11-23T23:36:10.378Z,6.72
2022-11-23T23:38:38.310Z,6.70
2022-11-23T23:41:05.867Z,6.69
2022-11-23T23:43:32.593Z,6.67
2022-11-23T23:46:00.896Z,6.67
2022-11-23T23:48:35.819Z,6.65
2022-11-23T23:51:07.236Z,6.64
2022-11-23T23:53:35.124Z,6.64
2022-11-23T23:56:06.313Z,6.62
2022-11-23T23:58:32.846Z,6.62
